Time;durP1;ratioP1;P1;durP2;ratioP2;P2;SDS_P1;SDS_P2;PMS_P1;PMS_P2;Temp;Humidity;BMP_temperature;BMP_pressure;BME280_temperature;BME280_humidity;BME280_pressure;Samples;Min_cycle;Max_cycle;Signal;HPM_P1;HPM_P2
2021/05/02 00:01:54;;;;;;;2.83;1.20;;;11.40;83.60;;;;;;5021909;28;20382;-60
2021/05/02 00:04:20;;;;;;;3.10;1.23;;;11.50;83.60;;;;;;5019642;28;20052;-60
2021/05/02 00:06:45;;;;;;;3.40;1.40;;;11.40;83.50;;;;;;5013687;28;20037;-60
2021/05/02 00:09:11;;;;;;;1.65;1.17;;;11.40;83.50;;;;;;5024321;28;20026;-60
2021/05/02 00:11:36;;;;;;;3.15;1.38;;;11.40;83.50;;;;;;5002234;28;20121;-60
2021/05/02 00:14:02;;;;;;;3.17;1.10;;;11.40;83.50;;;;;;5018904;28;20044;-60
2021/05/02 00:16:28;;;;;;;1.80;1.10;;;11.40;83.50;;;;;;5013828;28;20030;-60
2021/05/02 00:18:54;;;;;;;3.47;1.38;;;11.40;83.60;;;;;;5022533;28;20075;-60
2021/05/02 00:21:19;;;;;;;3.85;1.00;;;11.30;84.10;;;;;;5021632;28;20109;-60
2021/05/02 00:23:45;;;;;;;5.10;0.95;;;11.30;83.40;;;;;;5027468;28;20112;-60
2021/05/02 00:26:10;;;;;;;2.63;1.10;;;11.30;83.40;;;;;;5003312;28;20117;-60
2021/05/02 00:28:38;;;;;;;1.63;1.08;;;11.30;83.40;;;;;;5023828;28;20030;-60
2021/05/02 00:31:07;;;;;;;1.60;1.10;;;11.30;83.40;;;;;;5024976;28;20018;-60
2021/05/02 00:33:35;;;;;;;1.45;0.82;;;11.30;83.50;;;;;;5023834;28;20144;-60
2021/05/02 00:36:01;;;;;;;1.67;1.00;;;11.30;83.40;;;;;;5025695;28;20036;-60
2021/05/02 00:38:26;;;;;;;2.05;0.95;;;11.30;83.30;;;;;;5029052;28;20033;-60
2021/05/02 00:40:56;;;;;;;1.27;0.80;;;11.30;83.40;;;;;;5010662;28;20032;-60
2021/05/02 00:43:55;;;;;;;3.22;1.00;;;11.30;83.40;;;;;;5021370;28;20028;-60
2021/05/02 00:47:10;;;;;;;1.75;1.20;;;11.30;83.40;;;;;;5027576;28;20025;-60
2021/05/02 00:49:42;;;;;;;2.97;1.00;;;11.30;83.40;;;;;;4927628;29;20043;-60
2021/05/02 00:52:33;;;;;;;1.45;0.80;;;11.20;83.30;;;;;;4930388;29;20028;-60
2021/05/02 00:55:06;;;;;;;1.63;1.08;;;11.20;83.30;;;;;;4968249;28;20045;-60
2021/05/02 00:57:54;;;;;;;1.10;0.80;;;11.20;83.40;;;;;;4998403;28;20041;-60
2021/05/02 01:00:20;;;;;;;2.45;0.90;;;11.20;83.40;;;;;;4977991;28;20046;-60
2021/05/02 01:02:47;;;;;;;2.25;0.90;;;11.20;83.50;;;;;;5001307;28;20049;-60
2021/05/02 01:05:13;;;;;;;2.15;1.13;;;11.20;83.60;;;;;;4994828;28;20026;-60
2021/05/02 01:07:42;;;;;;;1.65;0.80;;;11.20;83.50;;;;;;4987512;28;20415;-60
2021/05/02 01:10:09;;;;;;;1.42;0.82;;;11.20;83.40;;;;;;4977555;28;20037;-60
2021/05/02 01:12:43;;;;;;;3.22;0.90;;;11.20;83.50;;;;;;5003224;28;20021;-60
2021/05/02 01:15:13;;;;;;;0.75;0.75;;;11.20;83.40;;;;;;4986380;28;20030;-60
2021/05/02 01:17:40;;;;;;;2.92;0.80;;;11.10;83.40;;;;;;4980895;28;20033;-60
2021/05/02 01:20:06;;;;;;;1.95;0.95;;;11.20;83.60;;;;;;4971653;28;20032;-60
2021/05/02 01:22:32;;;;;;;1.15;0.70;;;11.20;83.60;;;;;;4999445;28;20035;-60
2021/05/02 01:24:57;;;;;;;1.67;0.80;;;11.10;83.50;;;;;;4987049;28;20106;-60
2021/05/02 01:27:27;;;;;;;3.72;1.00;;;11.10;83.50;;;;;;4981560;28;20395;-60
2021/05/02 01:29:52;;;;;;;0.90;0.70;;;11.10;83.60;;;;;;4984061;28;20374;-60
2021/05/02 01:32:18;;;;;;;1.50;1.10;;;11.10;83.60;;;;;;4995763;28;20044;-60
2021/05/02 01:34:44;;;;;;;2.08;1.25;;;11.10;83.60;;;;;;4990930;28;20042;-60
2021/05/02 01:37:10;;;;;;;1.70;0.90;;;11.10;83.60;;;;;;4999470;28;20022;-60
2021/05/02 01:39:36;;;;;;;1.08;0.95;;;11.10;83.60;;;;;;4972060;28;20030;-60
2021/05/02 01:42:01;;;;;;;2.00;1.13;;;11.10;83.60;;;;;;4981111;28;20498;-60
2021/05/02 01:44:27;;;;;;;2.08;1.17;;;11.10;83.60;;;;;;5001710;28;20030;-60
2021/05/02 01:46:52;;;;;;;2.90;1.05;;;11.10;83.60;;;;;;4980742;28;20386;-60
2021/05/02 01:49:18;;;;;;;3.60;1.20;;;11.10;83.50;;;;;;5009012;28;20481;-60
2021/05/02 01:51:43;;;;;;;2.15;1.00;;;11.10;84.20;;;;;;5020181;28;20061;-60
2021/05/02 01:54:09;;;;;;;1.10;0.90;;;11.10;83.50;;;;;;5022410;28;20040;-59
2021/05/02 01:56:35;;;;;;;1.08;0.90;;;11.10;83.60;;;;;;5019345;28;20026;-60
2021/05/02 01:59:02;;;;;;;1.40;1.00;;;11.10;83.50;;;;;;5024168;28;20456;-60
2021/05/02 02:01:29;;;;;;;1.40;1.17;;;11.10;83.50;;;;;;5017999;28;20021;-60
2021/05/02 02:03:55;;;;;;;1.67;1.25;;;11.10;83.40;;;;;;5025463;28;20075;-60
2021/05/02 02:06:21;;;;;;;1.73;1.25;;;11.00;83.40;;;;;;5017835;28;20036;-60
2021/05/02 02:08:46;;;;;;;2.00;1.30;;;11.10;83.50;;;;;;5023480;28;20037;-60
2021/05/02 02:11:12;;;;;;;2.38;1.40;;;11.10;83.40;;;;;;5023025;28;20021;-60
2021/05/02 02:13:37;;;;;;;2.08;1.40;;;11.10;83.40;;;;;;5017278;28;20049;-60
2021/05/02 02:16:04;;;;;;;3.53;1.10;;;11.00;83.30;;;;;;5024239;28;20428;-60
2021/05/02 02:18:30;;;;;;;1.30;1.05;;;11.00;83.40;;;;;;5014772;28;20018;-60
2021/05/02 02:20:55;;;;;;;1.00;0.90;;;11.00;83.30;;;;;;5024094;28;20492;-60
2021/05/02 02:23:23;;;;;;;1.77;1.00;;;11.00;83.30;;;;;;5027305;28;20443;-60
2021/05/02 02:25:49;;;;;;;1.60;1.00;;;11.00;83.50;;;;;;5016498;28;20462;-60
2021/05/02 02:28:19;;;;;;;0.90;0.80;;;11.10;83.60;;;;;;5013073;28;20115;-60
2021/05/02 02:30:46;;;;;;;1.23;1.00;;;11.00;83.40;;;;;;5023989;28;20025;-60
2021/05/02 02:33:12;;;;;;;1.10;1.00;;;11.00;83.40;;;;;;5005668;28;20380;-60
2021/05/02 02:35:51;;;;;;;1.30;0.98;;;11.00;83.30;;;;;;5026339;28;20037;-60
2021/05/02 02:38:22;;;;;;;1.20;1.10;;;11.00;83.40;;;;;;5020957;28;20394;-60
2021/05/02 02:40:49;;;;;;;2.03;1.13;;;11.00;83.30;;;;;;5020199;28;21111;-60
2021/05/02 02:43:26;;;;;;;1.10;1.00;;;11.00;83.30;;;;;;5009011;28;20389;-60
2021/05/02 02:45:54;;;;;;;1.38;0.98;;;11.00;83.30;;;;;;5020245;28;20017;-60
2021/05/02 02:48:21;;;;;;;1.27;1.00;;;11.00;83.40;;;;;;5024258;28;20481;-60
2021/05/02 02:50:48;;;;;;;1.13;1.00;;;11.00;83.40;;;;;;5009729;28;20025;-60
2021/05/02 02:53:14;;;;;;;1.30;0.90;;;11.00;83.30;;;;;;5010034;28;20445;-60
2021/05/02 02:55:39;;;;;;;1.50;0.93;;;11.00;83.30;;;;;;5010262;28;20025;-60
2021/05/02 02:58:05;;;;;;;0.90;0.90;;;11.00;83.30;;;;;;5025336;28;20338;-60
2021/05/02 03:00:35;;;;;;;1.10;0.85;;;10.90;83.30;;;;;;5019725;28;20069;-60
2021/05/02 03:03:13;;;;;;;1.10;0.98;;;10.90;83.80;;;;;;5005002;28;20548;-60
2021/05/02 03:05:39;;;;;;;0.93;0.80;;;10.90;83.10;;;;;;5007020;28;20041;-60
2021/05/02 03:08:07;;;;;;;1.27;0.70;;;10.90;83.20;;;;;;5007098;28;20180;-60
2021/05/02 03:10:32;;;;;;;1.10;1.00;;;10.90;83.20;;;;;;5014775;28;20444;-60
2021/05/02 03:12:59;;;;;;;1.90;1.00;;;10.90;83.10;;;;;;5014030;28;20117;-60
2021/05/02 03:15:24;;;;;;;1.02;0.82;;;10.90;83.20;;;;;;5014683;28;20037;-60
2021/05/02 03:18:02;;;;;;;1.00;0.80;;;10.90;83.20;;;;;;5021655;28;20174;-60
2021/05/02 03:20:28;;;;;;;1.17;0.80;;;10.90;83.20;;;;;;5021190;28;20477;-60
2021/05/02 03:22:57;;;;;;;0.90;0.70;;;10.90;83.30;;;;;;5025733;28;20041;-60
2021/05/02 03:25:24;;;;;;;1.27;1.02;;;10.90;83.30;;;;;;5016960;28;20028;-60
2021/05/02 03:27:53;;;;;;;1.00;0.90;;;10.80;83.30;;;;;;5003364;28;20030;-60
2021/05/02 03:30:19;;;;;;;0.80;0.73;;;10.90;83.30;;;;;;4997399;28;20026;-60
2021/05/02 03:32:47;;;;;;;0.70;0.70;;;10.90;83.40;;;;;;5011823;28;20036;-60
2021/05/02 03:35:12;;;;;;;1.25;0.90;;;10.90;83.30;;;;;;5015363;28;20029;-60
2021/05/02 03:37:38;;;;;;;1.65;0.85;;;10.90;83.40;;;;;;5006876;28;20456;-60
2021/05/02 03:40:04;;;;;;;0.90;0.90;;;10.80;83.30;;;;;;5022150;28;20034;-60
2021/05/02 03:42:31;;;;;;;1.00;0.80;;;10.80;83.20;;;;;;5011899;28;20030;-60
2021/05/02 03:44:56;;;;;;;1.25;0.90;;;10.80;83.20;;;;;;5023365;28;20112;-60
2021/05/02 03:47:22;;;;;;;1.20;0.80;;;10.80;83.20;;;;;;5020107;28;20408;-60
2021/05/02 03:49:47;;;;;;;0.60;0.60;;;10.80;83.20;;;;;;5015888;28;20026;-60
2021/05/02 03:52:14;;;;;;;1.52;1.00;;;10.70;83.30;;;;;;5009049;28;20483;-60
2021/05/02 03:54:40;;;;;;;1.20;0.80;;;10.80;83.40;;;;;;5017277;28;20091;-60
2021/05/02 03:57:05;;;;;;;0.68;0.68;;;10.80;83.40;;;;;;5015605;28;20030;-60
2021/05/02 03:59:31;;;;;;;0.80;0.75;;;10.80;83.40;;;;;;5026956;28;20041;-60
2021/05/02 04:01:57;;;;;;;1.17;1.08;;;10.80;83.40;;;;;;5028677;28;20033;-60
2021/05/02 04:04:26;;;;;;;1.00;0.90;;;10.80;83.50;;;;;;5016192;28;20104;-60
2021/05/02 04:06:57;;;;;;;1.15;0.70;;;10.80;83.60;;;;;;5013967;28;20038;-60
2021/05/02 04:09:23;;;;;;;1.08;0.75;;;10.80;83.50;;;;;;5021540;28;20076;-60
2021/05/02 04:11:48;;;;;;;0.95;0.80;;;10.70;83.40;;;;;;5026604;28;20473;-60
2021/05/02 04:14:15;;;;;;;0.95;0.85;;;10.80;83.50;;;;;;5015326;28;20548;-60
2021/05/02 04:16:40;;;;;;;1.40;1.00;;;10.80;83.50;;;;;;5013525;28;20081;-60
2021/05/02 04:19:08;;;;;;;1.00;0.88;;;10.70;83.30;;;;;;5019818;28;20062;-60
2021/05/02 04:21:34;;;;;;;0.85;0.80;;;10.80;83.40;;;;;;5017725;28;20025;-60
2021/05/02 04:24:00;;;;;;;1.00;0.90;;;10.70;83.40;;;;;;5019437;28;20464;-60
2021/05/02 04:26:25;;;;;;;0.82;0.82;;;10.80;83.50;;;;;;5020533;28;20025;-60
2021/05/02 04:28:51;;;;;;;1.95;1.10;;;10.70;83.50;;;;;;5015149;28;20497;-60
2021/05/02 04:31:17;;;;;;;1.73;1.10;;;10.70;83.40;;;;;;5012338;28;20109;-60
2021/05/02 04:33:42;;;;;;;1.83;0.98;;;10.70;83.40;;;;;;5017795;28;20431;-60
2021/05/02 04:36:08;;;;;;;3.38;1.20;;;10.70;83.40;;;;;;5008015;28;20073;-60
2021/05/02 04:38:34;;;;;;;6.40;1.30;;;10.70;83.30;;;;;;5020440;28;20389;-60
2021/05/02 04:40:59;;;;;;;2.72;1.17;;;10.80;83.40;;;;;;5030958;28;20441;-60
2021/05/02 04:43:25;;;;;;;3.78;1.08;;;10.80;83.40;;;;;;5023696;28;20037;-60
2021/05/02 04:45:50;;;;;;;3.83;1.00;;;10.80;83.40;;;;;;5017871;28;20038;-60
2021/05/02 04:48:16;;;;;;;4.75;1.70;;;10.80;83.40;;;;;;5029855;28;20531;-60
2021/05/02 04:50:41;;;;;;;6.65;1.50;;;10.80;83.30;;;;;;5019539;28;20045;-60
2021/05/02 04:53:08;;;;;;;5.80;1.33;;;10.80;83.40;;;;;;5015530;28;20033;-60
2021/05/02 04:55:33;;;;;;;6.72;1.50;;;10.70;83.50;;;;;;5013587;28;20045;-60
2021/05/02 04:58:01;;;;;;;8.10;1.88;;;10.80;83.50;;;;;;5013809;28;20033;-60
2021/05/02 05:00:26;;;;;;;6.47;1.75;;;10.80;83.50;;;;;;5015840;28;20373;-60
2021/05/02 05:02:53;;;;;;;5.50;1.65;;;10.80;83.50;;;;;;5024236;28;20022;-60
2021/05/02 05:05:19;;;;;;;2.72;1.52;;;10.80;83.50;;;;;;5011375;28;20032;-60
2021/05/02 05:07:44;;;;;;;6.82;1.42;;;10.80;83.70;;;;;;5022027;28;20109;-60
2021/05/02 05:10:10;;;;;;;9.93;1.35;;;10.80;84.10;;;;;;5022630;28;20045;-60
2021/05/02 05:12:37;;;;;;;7.00;1.55;;;10.80;84.10;;;;;;5024027;28;20041;-60
2021/05/02 05:15:04;;;;;;;5.68;1.50;;;10.80;84.10;;;;;;5023052;28;20021;-60
2021/05/02 05:17:29;;;;;;;10.68;1.70;;;10.80;83.90;;;;;;5029850;28;20022;-60
2021/05/02 05:19:55;;;;;;;5.65;1.60;;;10.80;83.90;;;;;;5019827;28;20033;-60
2021/05/02 05:22:21;;;;;;;6.53;1.83;;;10.80;84.00;;;;;;5014266;28;20041;-60
2021/05/02 05:24:47;;;;;;;6.70;1.25;;;10.80;84.10;;;;;;5021068;28;20198;-60
2021/05/02 05:27:12;;;;;;;7.03;1.88;;;10.80;84.30;;;;;;5015041;28;20018;-60
2021/05/02 05:29:38;;;;;;;5.78;2.10;;;10.80;84.30;;;;;;5013699;28;20109;-60
2021/05/02 05:32:04;;;;;;;11.10;1.98;;;10.80;84.30;;;;;;5015595;28;20061;-60
2021/05/02 05:34:30;;;;;;;21.30;2.60;;;10.80;84.40;;;;;;5012255;28;20112;-60
2021/05/02 05:36:56;;;;;;;13.75;2.60;;;10.80;84.60;;;;;;5027411;28;20088;-60
2021/05/02 05:39:21;;;;;;;6.18;1.92;;;10.80;84.60;;;;;;5028588;28;20374;-60
2021/05/02 05:41:47;;;;;;;9.63;1.98;;;10.80;84.50;;;;;;5024533;28;20457;-60
2021/05/02 05:44:12;;;;;;;9.25;2.55;;;10.80;84.50;;;;;;5029585;28;20029;-60
2021/05/02 05:46:38;;;;;;;6.60;2.30;;;10.80;84.50;;;;;;5020950;28;20038;-60
2021/05/02 05:49:04;;;;;;;12.52;2.95;;;10.80;84.50;;;;;;5020999;28;20045;-60
2021/05/02 05:51:29;;;;;;;11.73;3.30;;;10.80;84.90;;;;;;5030001;28;20038;-60
2021/05/02 05:53:55;;;;;;;11.07;2.42;;;10.90;85.30;;;;;;5019536;28;20026;-60
2021/05/02 05:56:20;;;;;;;13.25;2.58;;;10.80;84.70;;;;;;5017838;28;20026;-60
2021/05/02 05:58:46;;;;;;;10.88;2.35;;;10.80;84.60;;;;;;5024933;28;20789;-60
2021/05/02 06:01:11;;;;;;;11.25;3.10;;;10.80;84.60;;;;;;5014945;28;20056;-60
2021/05/02 06:03:37;;;;;;;19.02;4.28;;;10.80;84.60;;;;;;5018284;28;20534;-61
2021/05/02 06:06:02;;;;;;;14.85;3.50;;;10.90;84.50;;;;;;5013881;28;20057;-60
2021/05/02 06:08:28;;;;;;;10.70;3.13;;;10.80;84.40;;;;;;5018976;28;20100;-60
2021/05/02 06:10:53;;;;;;;10.57;2.72;;;10.90;84.50;;;;;;5023283;28;20027;-60
2021/05/02 06:13:19;;;;;;;10.90;2.63;;;10.90;84.60;;;;;;5010126;28;20030;-60
2021/05/02 06:15:44;;;;;;;12.75;2.97;;;10.90;84.70;;;;;;5018308;28;20528;-60
2021/05/02 06:18:10;;;;;;;9.50;2.72;;;10.90;84.90;;;;;;5002574;28;20021;-60
2021/05/02 06:20:36;;;;;;;10.55;2.58;;;10.90;85.30;;;;;;5011609;28;20058;-60
2021/05/02 06:23:01;;;;;;;13.10;3.50;;;10.80;85.10;;;;;;5020302;28;20032;-61
2021/05/02 06:25:27;;;;;;;11.65;3.55;;;10.80;85.20;;;;;;5012090;28;20032;-60
2021/05/02 06:27:52;;;;;;;15.88;3.17;;;10.80;85.50;;;;;;5007651;28;20022;-59
2021/05/02 06:30:18;;;;;;;11.48;3.83;;;10.80;85.70;;;;;;5010241;28;20033;-60
2021/05/02 06:32:44;;;;;;;10.82;3.20;;;10.80;86.10;;;;;;5018685;28;20030;-60
2021/05/02 06:35:10;;;;;;;9.38;3.10;;;10.80;85.90;;;;;;5013074;28;20136;-60
2021/05/02 06:37:36;;;;;;;9.13;2.83;;;10.80;85.70;;;;;;5029447;28;20069;-59
2021/05/02 06:40:01;;;;;;;10.40;3.17;;;10.80;86.60;;;;;;5022519;28;20112;-60
2021/05/02 06:42:27;;;;;;;6.70;2.88;;;10.80;85.80;;;;;;5006965;28;20113;-60
2021/05/02 06:44:52;;;;;;;7.93;2.83;;;10.80;85.90;;;;;;5020068;28;20106;-60
2021/05/02 06:47:18;;;;;;;5.65;2.92;;;10.80;85.90;;;;;;5025163;28;20056;-60
2021/05/02 06:49:44;;;;;;;5.75;2.90;;;10.80;86.00;;;;;;5019796;28;20076;-60
2021/05/02 06:52:09;;;;;;;10.80;2.78;;;10.80;86.00;;;;;;5009347;28;20022;-60
2021/05/02 06:54:35;;;;;;;9.77;2.70;;;10.80;85.90;;;;;;5010333;28;20041;-60
2021/05/02 06:57:00;;;;;;;11.77;3.33;;;10.80;85.90;;;;;;5015711;28;20373;-60
2021/05/02 06:59:26;;;;;;;14.93;3.78;;;10.80;85.90;;;;;;5014216;28;20037;-60
2021/05/02 07:01:51;;;;;;;24.52;4.72;;;10.80;85.90;;;;;;5022431;28;20021;-60
2021/05/02 07:04:17;;;;;;;19.55;4.35;;;10.80;85.90;;;;;;5009701;28;20339;-60
2021/05/02 07:06:42;;;;;;;24.85;4.00;;;10.80;85.80;;;;;;5020855;28;20334;-60
2021/05/02 07:09:08;;;;;;;15.02;4.32;;;10.80;85.90;;;;;;5015166;28;20065;-60
2021/05/02 07:11:33;;;;;;;11.43;3.63;;;10.80;85.80;;;;;;5016582;28;20525;-60
2021/05/02 07:13:59;;;;;;;17.73;4.10;;;10.80;85.70;;;;;;5008295;28;20522;-60
2021/05/02 07:16:25;;;;;;;14.82;4.10;;;10.80;85.50;;;;;;5017451;28;20033;-60
2021/05/02 07:18:51;;;;;;;16.15;3.75;;;10.80;85.30;;;;;;5015259;28;20385;-60
2021/05/02 07:21:19;;;;;;;20.88;4.32;;;10.90;85.30;;;;;;5022058;28;20532;-60
2021/05/02 07:23:47;;;;;;;11.63;3.42;;;10.90;85.10;;;;;;5007374;28;20375;-60
2021/05/02 07:26:12;;;;;;;12.98;3.78;;;10.90;85.10;;;;;;5022372;28;20031;-60
2021/05/02 07:28:38;;;;;;;14.50;3.70;;;10.90;85.10;;;;;;5025217;28;20037;-60
2021/05/02 07:31:03;;;;;;;10.23;3.35;;;10.90;85.00;;;;;;5022173;28;20506;-60
2021/05/02 07:33:29;;;;;;;10.68;3.55;;;10.90;84.90;;;;;;5023737;28;20089;-60
2021/05/02 07:35:55;;;;;;;6.50;3.25;;;10.90;84.90;;;;;;5029149;28;20072;-60
2021/05/02 07:38:20;;;;;;;10.80;3.38;;;10.90;84.80;;;;;;5017207;28;20063;-60
2021/05/02 07:40:46;;;;;;;7.93;3.30;;;11.00;84.80;;;;;;5014787;28;20042;-60
2021/05/02 07:43:11;;;;;;;8.07;2.95;;;11.00;84.80;;;;;;5025260;28;20116;-60
2021/05/02 07:45:37;;;;;;;13.70;3.50;;;10.90;84.60;;;;;;5019647;28;20037;-60
2021/05/02 07:48:03;;;;;;;9.55;3.28;;;10.90;84.50;;;;;;5027415;28;20056;-60
2021/05/02 07:50:28;;;;;;;11.82;3.35;;;11.00;84.40;;;;;;5017911;28;20399;-60
2021/05/02 07:52:54;;;;;;;8.35;3.25;;;11.00;84.40;;;;;;5019572;28;20116;-60
2021/05/02 07:55:19;;;;;;;8.70;3.00;;;11.00;84.30;;;;;;5018948;28;20030;-60
2021/05/02 07:57:45;;;;;;;6.00;2.78;;;11.00;84.30;;;;;;5027652;28;20025;-60
2021/05/02 08:00:11;;;;;;;7.72;2.90;;;11.00;84.30;;;;;;5024355;28;20091;-60
2021/05/02 08:02:40;;;;;;;7.07;3.00;;;11.00;84.20;;;;;;5014406;28;20030;-60
2021/05/02 08:05:08;;;;;;;7.97;3.28;;;11.00;84.20;;;;;;5026604;28;20033;-60
2021/05/02 08:07:33;;;;;;;5.50;2.53;;;11.00;84.10;;;;;;5016596;28;20132;-60
2021/05/02 08:09:59;;;;;;;7.75;3.13;;;11.00;84.10;;;;;;5024382;28;20536;-60
2021/05/02 08:12:24;;;;;;;5.80;2.85;;;11.10;84.10;;;;;;5018924;28;20525;-60
2021/05/02 08:14:50;;;;;;;6.90;2.97;;;11.10;84.20;;;;;;5021683;28;20125;-60
2021/05/02 08:17:15;;;;;;;9.82;3.00;;;11.10;84.30;;;;;;5016927;28;20048;-60
2021/05/02 08:19:41;;;;;;;15.95;3.42;;;11.20;84.90;;;;;;5015388;28;20032;-60
2021/05/02 08:22:06;;;;;;;11.88;3.55;;;11.20;85.80;;;;;;5020332;28;20165;-60
2021/05/02 08:24:32;;;;;;;17.33;3.50;;;11.20;85.20;;;;;;5014002;28;20034;-60
2021/05/02 08:26:57;;;;;;;12.73;3.40;;;11.20;85.20;;;;;;5021674;28;20479;-59
2021/05/02 08:29:23;;;;;;;18.05;3.67;;;11.30;85.20;;;;;;5013978;28;20060;-60
2021/05/02 08:31:49;;;;;;;17.00;4.13;;;11.30;85.20;;;;;;5014645;28;20025;-60
2021/05/02 08:34:14;;;;;;;22.30;3.72;;;11.40;85.40;;;;;;5024070;28;20462;-60
2021/05/02 08:36:40;;;;;;;17.17;3.75;;;11.40;85.30;;;;;;5007869;28;20036;-60
2021/05/02 08:39:05;;;;;;;74.60;7.63;;;11.40;85.40;;;;;;5017185;28;20064;-60
2021/05/02 08:41:31;;;;;;;26.05;4.60;;;11.50;85.60;;;;;;5025216;28;20112;-60
2021/05/02 08:43:56;;;;;;;30.35;6.18;;;11.50;85.30;;;;;;5025093;28;20037;-60
2021/05/02 08:46:23;;;;;;;39.30;5.90;;;11.60;85.70;;;;;;5019369;28;20026;-60
2021/05/02 08:48:48;;;;;;;44.13;6.15;;;11.60;85.90;;;;;;5028378;28;20125;-60
2021/05/02 08:51:14;;;;;;;40.38;5.63;;;11.70;86.00;;;;;;5020947;28;20565;-60
2021/05/02 08:53:40;;;;;;;35.35;5.88;;;11.70;85.90;;;;;;5021745;28;20107;-60
2021/05/02 08:56:06;;;;;;;34.60;5.40;;;11.80;85.90;;;;;;5014122;28;20073;-60
2021/05/02 08:58:32;;;;;;;36.95;7.15;;;11.80;85.90;;;;;;5023383;28;20041;-60
2021/05/02 09:00:58;;;;;;;48.85;6.63;;;11.80;85.50;;;;;;5018375;28;20037;-60
2021/05/02 09:03:55;;;;;;;48.35;6.28;;;11.90;85.70;;;;;;5015607;28;20098;-60
2021/05/02 09:06:21;;;;;;;44.63;7.00;;;12.00;85.70;;;;;;4989871;28;20079;-60
2021/05/02 09:08:47;;;;;;;78.15;11.52;;;12.00;85.80;;;;;;5018201;28;20121;-60
2021/05/02 09:11:15;;;;;;;56.78;9.48;;;12.10;86.00;;;;;;5008417;28;20034;-60
2021/05/02 09:13:49;;;;;;;60.83;8.80;;;12.10;86.50;;;;;;5019510;28;20033;-60
2021/05/02 09:16:14;;;;;;;72.80;8.25;;;12.20;85.80;;;;;;5021655;28;20029;-60
2021/05/02 09:18:46;;;;;;;59.65;10.25;;;12.20;85.80;;;;;;5013801;28;20038;-60
2021/05/02 09:21:24;;;;;;;86.95;11.45;;;12.20;85.90;;;;;;5014940;28;20034;-60
2021/05/02 09:23:50;;;;;;;89.25;10.48;;;12.30;85.90;;;;;;5019946;28;20058;-60
2021/05/02 09:26:23;;;;;;;91.32;10.95;;;12.30;85.90;;;;;;5021466;28;20073;-60
2021/05/02 09:28:56;;;;;;;86.80;11.18;;;12.30;86.10;;;;;;5020025;28;20152;-60
2021/05/02 09:31:23;;;;;;;74.68;10.25;;;12.40;86.20;;;;;;5015496;28;20038;-60
2021/05/02 09:33:49;;;;;;;97.32;13.95;;;12.40;86.30;;;;;;5019849;28;20084;-60
2021/05/02 09:36:16;;;;;;;64.00;9.05;;;12.50;86.30;;;;;;5011160;28;20429;-60
2021/05/02 09:38:41;;;;;;;82.85;10.73;;;12.50;86.00;;;;;;5027676;28;20025;-60
2021/05/02 09:41:07;;;;;;;94.88;12.35;;;12.60;86.00;;;;;;5021494;28;20033;-60
2021/05/02 09:43:33;;;;;;;76.45;11.52;;;12.60;85.90;;;;;;5016128;28;20057;-60
2021/05/02 09:46:26;;;;;;;83.88;11.25;;;12.70;85.90;;;;;;5014503;28;20389;-60
2021/05/02 09:49:00;;;;;;;102.85;12.00;;;12.70;85.70;;;;;;5014588;28;20033;-60
2021/05/02 09:51:27;;;;;;;87.05;11.93;;;12.80;85.50;;;;;;5019852;28;20026;-60
2021/05/02 09:54:12;;;;;;;111.38;13.15;;;12.90;85.40;;;;;;5017657;28;20026;-60
2021/05/02 09:56:43;;;;;;;68.13;10.93;;;12.90;85.40;;;;;;5024166;28;20034;-60
2021/05/02 09:59:20;;;;;;;78.85;12.27;;;13.00;85.40;;;;;;5025334;28;20117;-60
2021/05/02 10:02:02;;;;;;;108.22;14.90;;;13.00;85.20;;;;;;5012278;28;20045;-60
2021/05/02 10:04:31;;;;;;;90.32;14.80;;;13.10;85.20;;;;;;5021965;28;20025;-61
2021/05/02 10:06:57;;;;;;;80.40;13.50;;;13.10;85.10;;;;;;5024288;28;20033;-60
2021/05/02 10:09:23;;;;;;;80.50;11.50;;;13.20;85.10;;;;;;4985250;28;20532;-60
2021/05/02 10:11:48;;;;;;;74.30;11.40;;;13.20;84.90;;;;;;5008637;28;20041;-60
2021/05/02 10:14:14;;;;;;;78.82;11.60;;;13.10;84.80;;;;;;5024550;28;20041;-60
2021/05/02 10:16:39;;;;;;;86.80;12.77;;;13.20;84.80;;;;;;5004541;28;20030;-60
2021/05/02 10:19:09;;;;;;;93.13;11.75;;;13.30;84.80;;;;;;5020368;28;20069;-60
2021/05/02 10:21:39;;;;;;;93.28;12.30;;;13.30;84.60;;;;;;4999413;28;20026;-60
2021/05/02 10:24:05;;;;;;;102.80;12.02;;;13.40;84.50;;;;;;5024329;28;20056;-61
2021/05/02 10:26:31;;;;;;;105.68;11.85;;;13.40;84.10;;;;;;5012485;28;20059;-60
2021/05/02 10:28:56;;;;;;;107.63;11.90;;;13.50;84.00;;;;;;5013185;28;20104;-60
2021/05/02 10:31:28;;;;;;;99.57;14.23;;;13.50;83.90;;;;;;5015803;28;20113;-61
2021/05/02 10:33:53;;;;;;;103.80;12.63;;;13.60;83.80;;;;;;5013705;28;20381;-60
2021/05/02 10:36:23;;;;;;;87.15;13.23;;;13.60;83.70;;;;;;5012642;28;20050;-60
2021/05/02 10:38:59;;;;;;;95.15;14.07;;;13.70;83.40;;;;;;5014117;28;20087;-60
2021/05/02 10:41:32;;;;;;;108.32;12.45;;;13.70;83.10;;;;;;4998988;28;20034;-61
2021/05/02 10:44:21;;;;;;;107.15;14.07;;;13.80;82.90;;;;;;5020990;28;20113;-60
2021/05/02 10:46:50;;;;;;;83.05;10.80;;;13.80;82.70;;;;;;5012512;28;20045;-60
2021/05/02 10:49:19;;;;;;;99.78;12.10;;;13.90;82.60;;;;;;5012079;28;20136;-60
2021/05/02 10:51:49;;;;;;;95.57;12.98;;;13.90;82.50;;;;;;5023403;28;20091;-60
2021/05/02 10:54:19;;;;;;;102.30;14.43;;;14.00;82.40;;;;;;5012265;28;20038;-60
2021/05/02 10:56:54;;;;;;;94.68;13.35;;;14.00;82.10;;;;;;5014391;28;20029;-60
2021/05/02 10:59:27;;;;;;;109.85;13.32;;;14.10;82.10;;;;;;5019681;28;20045;-60
2021/05/02 11:01:53;;;;;;;101.45;13.30;;;14.10;82.00;;;;;;5002546;28;20037;-60
2021/05/02 11:04:19;;;;;;;124.80;14.52;;;14.20;81.80;;;;;;5012225;28;20022;-60
2021/05/02 11:06:44;;;;;;;95.75;12.52;;;14.30;81.70;;;;;;5018812;28;20057;-60
2021/05/02 11:09:13;;;;;;;124.43;16.10;;;14.30;81.40;;;;;;5022549;28;20038;-60
2021/05/02 11:11:45;;;;;;;110.47;13.50;;;14.40;81.00;;;;;;5006147;28;20496;-60
2021/05/02 11:14:14;;;;;;;128.32;15.55;;;14.50;80.70;;;;;;5014187;28;20030;-60
2021/05/02 11:16:42;;;;;;;108.20;14.65;;;14.50;80.30;;;;;;5015300;28;20036;-60
2021/05/02 11:19:09;;;;;;;88.18;12.73;;;14.60;80.10;;;;;;5012811;28;20049;-60
2021/05/02 11:21:53;;;;;;;133.40;15.15;;;14.70;80.00;;;;;;5000569;28;20034;-60
2021/05/02 11:24:25;;;;;;;106.15;14.60;;;14.80;80.00;;;;;;5013885;28;20406;-60
2021/05/02 11:29:52;;;;;;;104.97;15.00;;;15.00;79.10;;;;;;5023672;28;20120;-60
2021/05/02 11:32:26;;;;;;;120.63;16.42;;;15.10;78.90;;;;;;5016498;28;20485;-60
2021/05/02 11:34:53;;;;;;;249.95;25.25;;;15.10;78.90;;;;;;5015455;28;20060;-60
2021/05/02 11:37:58;;;;;;;128.50;17.40;;;15.20;78.80;;;;;;5022224;28;20098;-60
2021/05/02 11:40:24;;;;;;;147.23;18.02;;;15.20;78.50;;;;;;5012947;28;20033;-60
2021/05/02 11:42:52;;;;;;;128.60;15.15;;;15.30;77.90;;;;;;5012233;28;20130;-60
2021/05/02 11:45:22;;;;;;;142.90;16.02;;;15.40;77.60;;;;;;5016265;28;20042;-60
2021/05/02 11:47:47;;;;;;;149.23;17.33;;;15.50;77.60;;;;;;5013847;28;20034;-59
2021/05/02 11:50:16;;;;;;;158.20;17.80;;;15.50;78.00;;;;;;5005741;28;20033;-60
2021/05/02 11:52:56;;;;;;;153.30;17.55;;;15.50;77.90;;;;;;5007663;28;20017;-60
2021/05/02 11:55:41;;;;;;;164.68;18.83;;;15.60;77.50;;;;;;5016600;28;20021;-59
2021/05/02 11:58:13;;;;;;;138.00;18.92;;;15.60;77.10;;;;;;5015387;28;20030;-60
2021/05/02 12:00:41;;;;;;;152.38;17.20;;;15.70;77.20;;;;;;5001793;28;20041;-59
2021/05/02 12:03:08;;;;;;;169.50;19.35;;;15.80;77.00;;;;;;5015995;28;20033;-59
2021/05/02 12:05:33;;;;;;;166.73;19.42;;;15.70;76.60;;;;;;4993180;28;20062;-60
2021/05/02 12:08:12;;;;;;;191.57;20.58;;;15.70;77.10;;;;;;5001351;28;20093;-60
2021/05/02 12:10:38;;;;;;;145.77;17.10;;;15.70;77.10;;;;;;5019709;28;20030;-60
2021/05/02 12:13:05;;;;;;;135.95;16.05;;;15.80;77.10;;;;;;5015357;28;20025;-60
2021/05/02 12:15:34;;;;;;;109.25;11.55;;;15.80;76.90;;;;;;5017692;28;20056;-61
2021/05/02 12:17:59;;;;;;;156.68;16.92;;;15.80;76.40;;;;;;5025860;28;20045;-60
2021/05/02 12:20:26;;;;;;;187.95;16.85;;;15.80;76.60;;;;;;5025216;28;20033;-60
2021/05/02 12:22:51;;;;;;;153.45;16.60;;;15.80;76.10;;;;;;5003823;28;20032;-60
2021/05/02 12:25:17;;;;;;;173.38;18.10;;;15.70;76.80;;;;;;5010526;28;20041;-60
2021/05/02 12:27:58;;;;;;;170.57;17.77;;;15.70;76.90;;;;;;5005741;28;20164;-61
2021/05/02 12:30:27;;;;;;;276.98;24.77;;;15.70;77.10;;;;;;5021595;28;20116;-59
2021/05/02 12:32:55;;;;;;;149.45;16.85;;;15.70;77.30;;;;;;5019628;28;20033;-59
2021/05/02 12:35:21;;;;;;;272.25;24.98;;;15.70;77.20;;;;;;5018045;28;20109;-59
2021/05/02 12:37:46;;;;;;;191.68;20.55;;;15.60;77.50;;;;;;5018060;28;20704;-60
2021/05/02 12:40:12;;;;;;;229.25;21.75;;;15.60;77.60;;;;;;5015266;28;20050;-60
2021/05/02 12:42:38;;;;;;;274.88;24.15;;;15.60;77.80;;;;;;5020822;28;20033;-60
2021/05/02 12:45:05;;;;;;;311.13;25.52;;;15.60;78.10;;;;;;5003059;28;20041;-60